Time;durP1;ratioP1;P1;durP2;ratioP2;P2;SDS_P1;SDS_P2;PMS_P1;PMS_P2;Temp;Humidity;BMP_temperature;BMP_pressure;BME280_temperature;BME280_humidity;BME280_pressure;Samples;Min_cycle;Max_cycle;Signal;HPM_P1;HPM_P2
2023/04/13 00:00:54;;;;;;;6.95;3.53;;;;;;;13.22;55.36;99791.69;5004883;28;20399;-51
2023/04/13 00:03:20;;;;;;;9.38;4.03;;;;;;;13.28;55.51;99790.34;4979120;28;20038;-55
2023/04/13 00:05:45;;;;;;;6.63;3.60;;;;;;;13.29;55.68;99786.72;5000581;28;20180;-48
2023/04/13 00:08:11;;;;;;;7.30;3.92;;;;;;;13.25;56.14;99798.53;4996743;28;20454;-47
2023/04/13 00:10:40;;;;;;;12.65;4.80;;;;;;;13.17;56.59;99787.78;5005437;28;20065;-50
2023/04/13 00:13:07;;;;;;;11.60;4.18;;;;;;;13.14;56.76;99785.38;5009803;28;20053;-50
2023/04/13 00:15:35;;;;;;;8.00;3.80;;;;;;;13.14;56.83;99793.31;4994858;28;20072;-51
2023/04/13 00:18:02;;;;;;;7.97;3.80;;;;;;;13.16;57.30;99796.66;4985746;28;20030;-46
2023/04/13 00:20:28;;;;;;;6.22;3.97;;;;;;;13.10;57.79;99798.84;5002610;28;20030;-52
2023/04/13 00:22:53;;;;;;;8.13;4.22;;;;;;;13.01;58.27;99804.91;4997927;28;20120;-47
2023/04/13 00:25:19;;;;;;;9.10;4.07;;;;;;;12.89;59.01;99812.03;5009238;28;20124;-51
2023/04/13 00:27:44;;;;;;;6.85;3.60;;;;;;;12.90;58.40;99810.25;5008033;28;20404;-49
2023/04/13 00:30:12;;;;;;;8.07;4.05;;;;;;;12.84;59.37;99814.22;5006651;28;20362;-49
2023/04/13 00:32:41;;;;;;;7.32;2.60;;;;;;;12.80;59.50;99816.25;5000300;28;20088;-53
2023/04/13 00:35:07;;;;;;;7.47;3.92;;;;;;;12.74;59.36;99806.22;5007542;28;20109;-53
2023/04/13 00:37:33;;;;;;;6.18;2.95;;;;;;;12.79;59.62;99805.84;5008594;28;20031;-49
2023/04/13 00:39:58;;;;;;;10.55;4.05;;;;;;;12.83;59.36;99806.41;5002831;28;20049;-46
2023/04/13 00:42:25;;;;;;;9.95;4.55;;;;;;;12.82;59.44;99813.50;5007015;28;20075;-50
2023/04/13 00:44:52;;;;;;;9.27;4.10;;;;;;;12.76;59.85;99806.94;5002394;28;20128;-52
2023/04/13 00:47:40;;;;;;;8.48;4.22;;;;;;;12.85;60.50;99797.41;4991260;28;20040;-52
2023/04/13 00:50:06;;;;;;;8.10;3.95;;;;;;;12.79;59.94;99785.53;5004441;28;20032;-54
2023/04/13 00:52:37;;;;;;;9.05;4.10;;;;;;;12.80;60.01;99784.56;4986008;28;20034;-49
2023/04/13 00:55:03;;;;;;;9.38;3.67;;;;;;;12.86;59.81;99779.78;5008120;28;20069;-46
2023/04/13 00:57:31;;;;;;;8.48;4.47;;;;;;;12.84;60.08;99776.41;5005711;28;20044;-49
2023/04/13 00:59:57;;;;;;;12.32;5.80;;;;;;;12.75;60.38;99781.50;5008528;28;20088;-47
2023/04/13 01:02:23;;;;;;;9.93;4.50;;;;;;;12.69;60.52;99784.63;5008735;28;20022;-48
2023/04/13 01:04:49;;;;;;;7.75;3.40;;;;;;;12.70;60.65;99802.16;5006499;28;20033;-48
2023/04/13 01:07:50;;;;;;;11.02;4.10;;;;;;;12.68;62.81;99808.53;5000351;28;20342;-48
2023/04/13 01:10:24;;;;;;;9.60;4.40;;;;;;;12.64;61.04;99797.34;5001043;28;20476;-48
2023/04/13 01:12:52;;;;;;;9.52;5.05;;;;;;;12.65;60.66;99791.13;5007168;28;20046;-52
2023/04/13 01:15:18;;;;;;;11.00;5.55;;;;;;;12.68;60.63;99798.78;5013332;28;20041;-50
2023/04/13 01:17:53;;;;;;;9.23;4.35;;;;;;;12.74;60.93;99811.50;5009518;28;20022;-49
2023/04/13 01:20:19;;;;;;;10.00;5.88;;;;;;;12.81;60.38;99820.56;5005728;28;20030;-52
2023/04/13 01:22:56;;;;;;;10.23;4.07;;;;;;;12.92;60.62;99821.50;5003457;28;20095;-54
2023/04/13 01:25:56;;;;;;;7.85;4.15;;;;;;;12.97;60.92;99819.31;5007274;28;20033;-50
2023/04/13 01:28:22;;;;;;;10.85;3.78;;;;;;;13.00;59.84;99828.81;5011744;28;20036;-46
2023/04/13 01:30:52;;;;;;;6.95;4.15;;;;;;;13.01;59.88;99836.59;5010131;28;20037;-54
2023/04/13 01:33:19;;;;;;;11.82;3.80;;;;;;;13.02;59.74;99837.41;5008826;28;20115;-51
2023/04/13 01:35:45;;;;;;;10.15;4.13;;;;;;;13.05;59.70;99843.31;5009630;28;20472;-48
2023/04/13 01:38:11;;;;;;;8.40;3.70;;;;;;;13.07;59.73;99846.66;5008141;28;20029;-50
2023/04/13 01:40:40;;;;;;;8.85;4.20;;;;;;;13.06;59.67;99839.69;5006950;28;20034;-47
2023/04/13 01:43:07;;;;;;;9.88;5.28;;;;;;;13.06;59.92;99844.97;5002042;28;20022;-50
2023/04/13 01:45:42;;;;;;;8.43;4.25;;;;;;;13.00;59.82;99840.19;5001031;28;20068;-51
2023/04/13 01:48:17;;;;;;;8.98;4.05;;;;;;;13.01;60.23;99841.03;5007122;28;20019;-55
2023/04/13 01:50:47;;;;;;;9.43;3.80;;;;;;;13.02;60.02;99840.91;5005038;28;20048;-48
2023/04/13 01:53:21;;;;;;;9.90;3.88;;;;;;;13.04;60.06;99836.34;5005863;28;20033;-47
2023/04/13 01:55:48;;;;;;;11.57;3.95;;;;;;;13.06;60.05;99839.69;5007060;28;20430;-49
2023/04/13 01:58:17;;;;;;;9.68;4.07;;;;;;;13.09;60.01;99836.78;4999894;28;20040;-49
2023/04/13 02:00:43;;;;;;;11.73;4.25;;;;;;;13.09;60.18;99842.06;5004345;28;20508;-47
2023/04/13 02:03:11;;;;;;;9.55;3.95;;;;;;;13.03;60.21;99834.66;5010926;28;20037;-46
2023/04/13 02:05:37;;;;;;;7.80;3.88;;;;;;;12.98;60.49;99831.56;5007474;28;20030;-49
2023/04/13 02:08:04;;;;;;;6.18;3.88;;;;;;;12.94;60.23;99830.97;5005425;28;20018;-46
2023/04/13 02:10:34;;;;;;;15.73;4.30;;;;;;;12.93;60.44;99849.59;5006229;28;20029;-53
2023/04/13 02:13:00;;;;;;;8.73;4.10;;;;;;;12.93;60.22;99844.31;4998296;28;20113;-46
2023/04/13 02:15:25;;;;;;;9.73;4.38;;;;;;;12.92;60.45;99842.63;5000713;28;20497;-48
2023/04/13 02:17:52;;;;;;;8.73;4.05;;;;;;;12.86;60.69;99848.41;5004245;28;20039;-47
2023/04/13 02:20:18;;;;;;;10.63;5.10;;;;;;;12.83;60.78;99853.94;5011709;28;20037;-46
2023/04/13 02:22:44;;;;;;;9.90;4.80;;;;;;;12.80;60.65;99853.22;5003351;28;20034;-52
2023/04/13 02:25:11;;;;;;;10.02;4.95;;;;;;;12.83;60.72;99853.94;4978187;28;20042;-52
2023/04/13 02:27:38;;;;;;;9.57;4.95;;;;;;;12.80;60.58;99863.78;5002410;28;20594;-47
2023/04/13 02:30:08;;;;;;;12.57;5.05;;;;;;;12.73;61.09;99859.13;5002603;28;20134;-50
2023/04/13 02:32:39;;;;;;;13.88;6.32;;;;;;;12.64;61.42;99884.44;5005921;28;20100;-50
2023/04/13 02:35:08;;;;;;;7.53;3.88;;;;;;;12.50;61.87;99881.13;5003209;28;20477;-50
2023/04/13 02:37:36;;;;;;;7.57;4.07;;;;;;;12.39;62.47;99886.41;5009414;28;20373;-48
2023/04/13 02:40:03;;;;;;;9.38;4.70;;;;;;;12.28;62.78;99886.44;5001343;28;20042;-51
2023/04/13 02:42:28;;;;;;;10.32;4.68;;;;;;;12.17;63.30;99880.22;5006544;28;20504;-48
2023/04/13 02:44:54;;;;;;;10.35;5.00;;;;;;;12.19;63.08;99890.63;4999056;28;20040;-49
2023/04/13 02:47:19;;;;;;;11.40;5.35;;;;;;;12.24;62.97;99879.72;5006254;28;20099;-48
2023/04/13 02:49:45;;;;;;;10.88;5.28;;;;;;;12.22;63.06;99871.06;5002477;28;20072;-51
2023/04/13 02:52:11;;;;;;;11.93;5.30;;;;;;;12.22;63.50;99871.06;5007166;28;20055;-50
2023/04/13 02:54:36;;;;;;;9.98;4.97;;;;;;;12.26;63.02;99877.78;5002839;28;20537;-49
2023/04/13 02:57:02;;;;;;;8.48;4.60;;;;;;;12.32;62.90;99887.88;5005124;28;20034;-49
2023/04/13 02:59:28;;;;;;;10.18;4.82;;;;;;;12.37;62.86;99896.25;4988307;28;20034;-49
2023/04/13 03:01:57;;;;;;;10.50;5.95;;;;;;;12.41;62.90;99891.56;5003593;28;20103;-48
2023/04/13 03:04:24;;;;;;;11.30;7.40;;;;;;;12.46;62.46;99895.53;5007907;28;20021;-48
2023/04/13 03:06:49;;;;;;;12.90;5.15;;;;;;;12.55;62.65;99893.97;5002076;28;20609;-51
2023/04/13 03:09:15;;;;;;;8.18;4.35;;;;;;;12.62;62.49;99894.31;5006479;28;20030;-49
2023/04/13 03:11:40;;;;;;;9.82;4.63;;;;;;;12.68;62.21;99895.63;4993024;28;20752;-52
2023/04/13 03:14:06;;;;;;;8.55;4.10;;;;;;;12.74;62.23;99897.75;4998654;28;20026;-49
2023/04/13 03:16:33;;;;;;;9.90;5.20;;;;;;;12.77;62.22;99898.38;5006678;28;20125;-48
2023/04/13 03:18:58;;;;;;;9.75;4.70;;;;;;;12.82;62.22;99895.34;5007066;28;20042;-51
2023/04/13 03:21:24;;;;;;;7.78;4.30;;;;;;;12.85;62.33;99883.69;5006269;28;20030;-49
2023/04/13 03:23:49;;;;;;;9.75;4.40;;;;;;;12.89;62.21;99890.41;4998633;28;20033;-50
2023/04/13 03:26:15;;;;;;;12.70;5.57;;;;;;;12.93;62.35;99894.47;4994518;28;20080;-51
2023/04/13 03:28:40;;;;;;;13.73;7.05;;;;;;;12.95;62.39;99901.31;5005366;28;20118;-48
2023/04/13 03:31:05;;;;;;;10.68;5.88;;;;;;;12.94;62.62;99904.06;5007460;28;20544;-48
2023/04/13 03:33:31;;;;;;;11.73;5.93;;;;;;;12.93;62.72;99897.13;5006226;28;20044;-51
2023/04/13 03:35:56;;;;;;;8.10;5.35;;;;;;;12.87;63.00;99908.16;5006301;28;20560;-48
2023/04/13 03:38:22;;;;;;;15.02;5.95;;;;;;;12.76;63.21;99909.88;5006784;28;20037;-48
2023/04/13 03:40:47;;;;;;;13.10;6.78;;;;;;;12.74;63.27;99922.38;5005834;28;20026;-50
2023/04/13 03:43:13;;;;;;;11.68;7.10;;;;;;;12.76;63.41;99923.09;5007532;28;20036;-49
2023/04/13 03:45:38;;;;;;;10.93;6.55;;;;;;;12.77;63.39;99929.19;5002698;28;20038;-54
2023/04/13 03:48:04;;;;;;;12.05;7.05;;;;;;;12.76;63.58;99935.44;5007096;28;20061;-50
2023/04/13 03:50:30;;;;;;;11.98;7.47;;;;;;;12.73;63.61;99938.31;5006406;28;20370;-51
2023/04/13 03:52:56;;;;;;;12.63;7.80;;;;;;;12.74;63.90;99946.13;5010427;28;20059;-51
2023/04/13 03:55:22;;;;;;;12.32;8.30;;;;;;;12.72;63.81;99952.47;5011157;28;20030;-49
2023/04/13 03:57:48;;;;;;;14.38;8.60;;;;;;;12.69;63.91;99958.84;5011714;28;20026;-48
2023/04/13 04:00:14;;;;;;;14.23;9.05;;;;;;;12.65;63.92;99957.38;5005112;28;20029;-49
2023/04/13 04:02:41;;;;;;;19.20;9.52;;;;;;;12.68;63.95;99973.00;5002695;28;20104;-48
2023/04/13 04:05:06;;;;;;;14.93;9.48;;;;;;;12.69;64.08;99968.56;5007679;28;20033;-51
2023/04/13 04:07:32;;;;;;;17.17;9.13;;;;;;;12.62;64.16;99973.50;5012615;28;20110;-48
2023/04/13 04:09:57;;;;;;;12.85;8.25;;;;;;;12.61;64.05;99971.81;5001888;28;20062;-48
2023/04/13 04:12:23;;;;;;;20.88;9.43;;;;;;;12.48;64.76;99972.75;5008985;28;20049;-52
2023/04/13 04:14:48;;;;;;;16.27;9.05;;;;;;;12.32;64.96;99978.38;5003395;28;20061;-52
2023/04/13 04:17:14;;;;;;;15.63;8.70;;;;;;;12.26;65.00;99980.66;5005552;28;20117;-48
2023/04/13 04:19:39;;;;;;;14.65;8.02;;;;;;;12.16;65.20;99981.38;5007586;28;20439;-50
2023/04/13 04:22:08;;;;;;;14.60;9.25;;;;;;;12.14;65.20;99974.53;5009842;28;20239;-50
2023/04/13 04:24:34;;;;;;;14.00;9.13;;;;;;;12.18;64.75;99973.34;4998521;28;20535;-51
2023/04/13 04:27:00;;;;;;;14.10;9.05;;;;;;;12.23;64.55;99983.53;5006261;28;20038;-50
2023/04/13 04:29:32;;;;;;;16.45;8.63;;;;;;;12.30;64.39;99977.66;5002175;28;20044;-47
2023/04/13 04:32:02;;;;;;;19.63;9.13;;;;;;;12.32;64.22;99993.38;4999489;28;20038;-50
2023/04/13 04:34:28;;;;;;;13.93;8.20;;;;;;;12.24;64.27;99998.41;5008855;28;20036;-51
2023/04/13 04:36:57;;;;;;;10.95;8.07;;;;;;;12.12;64.63;100008.09;5011037;28;20114;-51
2023/04/13 04:39:25;;;;;;;15.55;9.98;;;;;;;12.18;64.09;100003.19;5007084;28;20026;-48
2023/04/13 04:41:54;;;;;;;14.40;8.38;;;;;;;12.19;63.92;100002.22;5010529;28;20038;-49
2023/04/13 04:44:29;;;;;;;10.02;6.88;;;;;;;12.13;63.98;99996.56;5003626;28;20037;-47
2023/04/13 04:46:55;;;;;;;11.45;8.30;;;;;;;12.12;63.75;100003.66;5006897;28;20443;-49
2023/04/13 04:49:21;;;;;;;12.77;7.50;;;;;;;12.06;63.79;100016.47;5005488;28;20040;-48
2023/04/13 04:51:47;;;;;;;12.18;8.02;;;;;;;12.05;63.72;100010.34;5010180;28;20021;-51
2023/04/13 04:54:15;;;;;;;12.70;7.60;;;;;;;12.01;63.90;100016.81;5006612;28;20076;-54
2023/04/13 04:56:41;;;;;;;10.52;7.00;;;;;;;11.88;63.95;100014.22;5008072;28;20042;-52
2023/04/13 04:59:07;;;;;;;9.98;6.70;;;;;;;11.86;63.88;100013.50;5007864;28;20564;-52
2023/04/13 05:01:33;;;;;;;9.93;7.13;;;;;;;11.83;64.07;100024.28;5000224;28;20037;-52
2023/04/13 05:04:00;;;;;;;9.45;6.18;;;;;;;11.80;63.99;100025.34;5008227;28;20026;-53
2023/04/13 05:06:26;;;;;;;10.90;7.30;;;;;;;11.78;64.16;100027.25;5006986;28;20069;-51
2023/04/13 05:08:52;;;;;;;12.48;7.05;;;;;;;11.79;64.08;100031.56;5008446;28;20034;-54
2023/04/13 05:11:17;;;;;;;12.23;7.28;;;;;;;11.81;63.85;100027.03;5004152;28;20038;-51
2023/04/13 05:13:42;;;;;;;15.50;8.02;;;;;;;11.76;64.10;100029.16;5010987;28;20033;-51
2023/04/13 05:16:09;;;;;;;12.85;7.28;;;;;;;11.82;63.95;100033.97;5005867;28;20030;-51
2023/04/13 05:18:44;;;;;;;11.23;7.15;;;;;;;11.79;64.13;100028.94;5003967;28;20075;-51
2023/04/13 05:21:09;;;;;;;11.98;6.95;;;;;;;11.82;63.71;100044.53;5005397;28;20021;-49
2023/04/13 05:23:34;;;;;;;7.43;4.53;;;;;;;11.77;64.01;100038.75;4999437;28;20041;-52
2023/04/13 05:26:00;;;;;;;12.50;7.78;;;;;;;11.77;63.83;100041.38;5007470;28;20032;-51
2023/04/13 05:28:26;;;;;;;11.88;7.07;;;;;;;11.79;63.78;100028.13;5007226;28;20551;-49
2023/04/13 05:30:51;;;;;;;13.13;7.43;;;;;;;11.81;63.65;100027.03;5004795;28;20035;-51
2023/04/13 05:33:17;;;;;;;13.40;7.55;;;;;;;11.86;63.53;100030.19;5008813;28;20026;-51
2023/04/13 05:35:42;;;;;;;13.27;7.95;;;;;;;11.95;63.29;100039.16;5008106;28;20061;-51
2023/04/13 05:38:08;;;;;;;11.40;7.00;;;;;;;12.02;62.99;100048.34;5009064;28;20049;-54
2023/04/13 05:40:34;;;;;;;13.98;7.60;;;;;;;12.10;62.95;100053.03;5003526;28;20076;-50
2023/04/13 05:43:00;;;;;;;12.00;6.85;;;;;;;12.15;62.77;100047.41;5004871;28;20026;-53
2023/04/13 05:45:26;;;;;;;14.65;8.75;;;;;;;12.19;62.72;100052.34;4998851;28;20392;-52
2023/04/13 05:47:52;;;;;;;13.73;8.27;;;;;;;12.24;62.79;100053.78;4996589;28;20037;-51
2023/04/13 05:50:17;;;;;;;11.48;6.90;;;;;;;12.22;62.59;100058.34;5007396;28;20026;-50
2023/04/13 05:52:43;;;;;;;12.50;7.68;;;;;;;12.19;62.75;100054.16;5004968;28;20064;-48
2023/04/13 05:55:09;;;;;;;11.23;7.78;;;;;;;12.19;62.88;100059.41;5004772;28;20026;-49
2023/04/13 05:57:34;;;;;;;12.38;6.97;;;;;;;12.16;62.72;100057.88;5009330;28;20079;-52
2023/04/13 06:00:00;;;;;;;13.38;6.65;;;;;;;12.04;63.04;100064.03;5008289;23;20069;-54
2023/04/13 06:02:25;;;;;;;13.13;7.20;;;;;;;11.93;63.33;100069.25;4990435;28;20030;-54
2023/04/13 06:04:53;;;;;;;10.85;7.35;;;;;;;11.89;63.26;100080.00;5003560;28;20129;-54
2023/04/13 06:07:20;;;;;;;10.38;6.60;;;;;;;11.81;63.50;100094.69;5007590;28;20038;-53
2023/04/13 06:09:46;;;;;;;9.40;5.95;;;;;;;11.73;63.40;100097.91;5003992;28;20391;-52
2023/04/13 06:12:12;;;;;;;9.55;6.47;;;;;;;11.66;63.56;100112.50;5002564;28;20033;-53
2023/04/13 06:14:37;;;;;;;12.23;6.53;;;;;;;11.63;63.59;100105.66;4987155;28;20033;-53
2023/04/13 06:17:03;;;;;;;10.65;6.35;;;;;;;11.65;63.31;100095.00;4991367;28;20026;-53
2023/04/13 06:19:28;;;;;;;9.88;5.85;;;;;;;11.66;63.32;100107.22;4993337;28;20120;-53
2023/04/13 06:21:54;;;;;;;12.50;5.55;;;;;;;11.63;63.34;100110.06;4989345;28;20491;-53
2023/04/13 06:24:19;;;;;;;9.00;6.03;;;;;;;11.57;63.32;100109.56;4988534;28;20404;-54
2023/04/13 06:26:45;;;;;;;11.70;5.75;;;;;;;11.62;63.25;100117.16;4986552;28;20053;-55
2023/04/13 06:29:11;;;;;;;8.70;5.57;;;;;;;11.63;63.22;100115.34;5022540;28;20045;-62
2023/04/13 06:31:36;;;;;;;9.95;5.70;;;;;;;11.69;62.92;100130.72;5004336;28;20041;-48
2023/04/13 06:34:02;;;;;;;8.63;5.25;;;;;;;11.62;63.15;100126.84;5000300;28;20061;-55
2023/04/13 06:36:27;;;;;;;8.25;5.50;;;;;;;11.63;62.99;100133.78;4991981;28;20061;-49
2023/04/13 06:38:53;;;;;;;11.82;5.63;;;;;;;11.49;63.18;100148.81;4999322;28;20048;-48
2023/04/13 06:41:18;;;;;;;7.45;3.42;;;;;;;11.44;63.35;100138.59;4996463;28;20034;-54
2023/04/13 06:43:45;;;;;;;9.48;5.38;;;;;;;11.44;63.33;100143.00;4999338;28;20097;-54
2023/04/13 06:46:13;;;;;;;9.98;5.05;;;;;;;11.49;63.09;100154.06;5000731;28;20038;-51
2023/04/13 06:48:38;;;;;;;9.15;5.25;;;;;;;11.50;63.29;100160.16;5004487;28;20030;-53
2023/04/13 06:51:04;;;;;;;8.85;5.25;;;;;;;11.56;63.10;100159.75;4999601;28;20034;-51
2023/04/13 06:53:29;;;;;;;10.82;5.20;;;;;;;11.58;62.93;100153.41;4996278;28;20068;-52
2023/04/13 06:55:55;;;;;;;9.82;5.13;;;;;;;11.58;63.06;100150.75;5003668;28;20399;-51
2023/04/13 06:58:22;;;;;;;8.13;4.55;;;;;;;11.63;62.87;100168.03;4996959;28;20030;-48
2023/04/13 07:00:47;;;;;;;7.13;4.75;;;;;;;11.62;62.78;100169.00;5000985;28;20038;-55
2023/04/13 07:03:12;;;;;;;9.70;5.45;;;;;;;11.64;62.59;100164.47;5001355;28;20458;-57
2023/04/13 07:05:38;;;;;;;9.90;5.88;;;;;;;11.72;62.62;100175.31;5003478;28;20124;-51
2023/04/13 07:08:05;;;;;;;8.25;5.28;;;;;;;11.78;62.38;100174.84;4996118;28;20038;-59
2023/04/13 07:10:30;;;;;;;10.77;5.68;;;;;;;11.86;62.33;100171.66;4996189;28;20041;-50
2023/04/13 07:12:55;;;;;;;7.60;4.53;;;;;;;12.00;62.16;100175.97;5000498;28;20030;-59
2023/04/13 07:15:21;;;;;;;7.57;4.40;;;;;;;12.04;61.77;100186.19;4992281;28;20029;-53
2023/04/13 07:17:48;;;;;;;10.43;4.63;;;;;;;12.03;61.51;100183.66;4993388;28;20097;-52
2023/04/13 07:20:14;;;;;;;11.25;4.80;;;;;;;12.13;61.68;100194.38;4995179;28;20120;-65
2023/04/13 07:22:40;;;;;;;7.97;4.88;;;;;;;12.26;61.42;100195.16;4987642;28;20034;-57
2023/04/13 07:25:06;;;;;;;9.15;4.80;;;;;;;12.38;61.02;100197.84;4999395;28;20041;-54
2023/04/13 07:27:32;;;;;;;10.07;4.28;;;;;;;12.34;60.88;100198.09;4995797;28;20030;-59
2023/04/13 07:29:58;;;;;;;7.97;3.75;;;;;;;12.41;60.81;100206.38;4994604;28;20497;-49
2023/04/13 07:32:26;;;;;;;7.20;4.00;;;;;;;12.46;60.56;100200.75;4984931;28;20049;-50
2023/04/13 07:34:51;;;;;;;9.68;4.50;;;;;;;12.59;60.22;100195.41;4996629;28;20489;-53
2023/04/13 07:37:17;;;;;;;8.43;4.78;;;;;;;12.68;60.07;100213.19;4999368;28;20115;-52
2023/04/13 07:39:43;;;;;;;9.77;4.28;;;;;;;12.80;59.90;100220.19;4996790;28;20060;-58
2023/04/13 07:42:08;;;;;;;10.75;5.35;;;;;;;12.93;59.70;100216.63;4999765;28;20045;-49
2023/04/13 07:44:33;;;;;;;6.93;4.32;;;;;;;13.05;59.52;100222.75;4993490;28;20040;-54
2023/04/13 07:46:59;;;;;;;9.32;5.03;;;;;;;13.16;59.19;100230.69;4997305;28;20037;-56
2023/04/13 07:49:24;;;;;;;10.50;4.60;;;;;;;13.25;58.96;100229.13;4998285;28;20170;-52
2023/04/13 07:51:52;;;;;;;10.05;3.55;;;;;;;13.32;59.05;100235.66;4994602;28;20045;-50
2023/04/13 07:54:17;;;;;;;11.25;4.45;;;;;;;13.40;58.93;100235.91;4998821;28;20439;-56
2023/04/13 07:56:43;;;;;;;11.98;5.43;;;;;;;13.44;58.65;100240.97;5001942;28;20038;-51
2023/04/13 07:59:08;;;;;;;18.00;9.70;;;;;;;13.49;58.47;100241.47;4982051;28;20034;-53
2023/04/13 08:01:34;;;;;;;14.43;6.20;;;;;;;13.51;58.51;100247.47;4988816;28;20025;-56
2023/04/13 08:03:59;;;;;;;7.75;3.58;;;;;;;13.47;58.09;100248.66;4986156;28;20164;-56
2023/04/13 08:06:26;;;;;;;6.53;3.55;;;;;;;13.49;58.13;100241.47;4996560;28;20423;-54
2023/04/13 08:08:52;;;;;;;11.00;3.60;;;;;;;13.54;57.92;100239.28;4996276;28;20030;-58
2023/04/13 08:11:18;;;;;;;12.55;4.18;;;;;;;13.57;57.98;100233.75;5002169;28;20366;-52
2023/04/13 08:16:11;;;;;;;9.55;4.00;;;;;;;13.68;57.59;100240.84;5021744;28;20095;-50
2023/04/13 08:18:37;;;;;;;7.60;3.67;;;;;;;13.73;57.55;100243.97;5023018;28;20046;-49
2023/04/13 08:21:10;;;;;;;24.65;9.30;;;;;;;13.80;57.53;100244.34;5034803;28;20467;-51
2023/04/13 08:23:38;;;;;;;11.10;3.97;;;;;;;13.79;57.38;100243.47;5041078;28;20422;-53
2023/04/13 08:26:04;;;;;;;7.47;3.63;;;;;;;13.66;56.97;100248.91;5039255;28;20037;-52
2023/04/13 08:28:31;;;;;;;4.35;1.58;;;;;;;13.58;57.19;100248.66;5047137;28;20032;-54
2023/04/13 08:30:56;;;;;;;10.30;2.88;;;;;;;13.61;57.50;100244.94;5042631;28;20076;-50
2023/04/13 08:33:21;;;;;;;5.15;3.08;;;;;;;13.68;56.98;100241.69;5045995;28;20053;-54
2023/04/13 08:35:47;;;;;;;5.13;3.10;;;;;;;13.65;56.77;100247.22;5048228;28;20040;-52
2023/04/13 08:38:12;;;;;;;7.20;2.90;;;;;;;13.49;56.85;100246.75;5047467;28;20029;-49
2023/04/13 08:40:39;;;;;;;4.40;2.60;;;;;;;13.47;56.87;100246.84;5037182;28;20037;-54
2023/04/13 08:43:08;;;;;;;10.75;3.70;;;;;;;13.51;56.82;100250.13;5034548;28;20109;-53
2023/04/13 08:45:33;;;;;;;11.35;3.72;;;;;;;13.56;56.94;100251.44;5031084;28;20021;-51
2023/04/13 08:48:02;;;;;;;5.95;2.97;;;;;;;13.64;56.64;100244.69;5043385;28;20039;-53
2023/04/13 08:50:28;;;;;;;7.50;3.30;;;;;;;13.65;56.52;100244.59;5036300;28;20115;-50
2023/04/13 08:52:54;;;;;;;9.95;4.32;;;;;;;13.71;56.41;100246.72;5036991;28;20453;-51
2023/04/13 08:55:20;;;;;;;7.88;3.42;;;;;;;13.79;56.22;100255.88;5033782;28;20115;-53
2023/04/13 08:57:48;;;;;;;7.10;3.17;;;;;;;13.85;55.95;100263.28;5031927;28;20127;-50
2023/04/13 09:00:16;;;;;;;9.20;2.97;;;;;;;13.87;56.11;100261.38;5044296;28;20036;-50
2023/04/13 09:02:47;;;;;;;12.30;3.95;;;;;;;13.96;56.02;100268.59;5040787;28;20063;-49
2023/04/13 09:05:16;;;;;;;10.38;3.10;;;;;;;14.02;55.98;100276.03;5042675;28;20037;-52
2023/04/13 09:07:52;;;;;;;9.23;3.08;;;;;;;14.12;55.89;100288.53;5043456;28;20029;-51
2023/04/13 09:10:19;;;;;;;9.30;3.70;;;;;;;14.13;55.72;100293.69;5045925;28;20068;-50
2023/04/13 09:12:45;;;;;;;8.07;3.60;;;;;;;14.07;55.60;100294.16;5045101;28;20116;-51
2023/04/13 09:15:15;;;;;;;14.30;6.60;;;;;;;14.11;55.73;100300.06;5047538;28;20029;-50
2023/04/13 09:17:41;;;;;;;9.05;4.13;;;;;;;14.09;55.66;100302.00;5048662;28;20049;-52
2023/04/13 09:20:11;;;;;;;14.63;4.05;;;;;;;14.08;55.60;100292.38;5040802;28;20075;-52
2023/04/13 09:22:37;;;;;;;9.02;4.18;;;;;;;14.12;55.58;100291.19;5027308;28;20119;-50
2023/04/13 09:25:04;;;;;;;12.63;4.63;;;;;;;14.17;55.69;100295.13;5030367;28;20040;-49
2023/04/13 09:27:29;;;;;;;14.13;5.22;;;;;;;14.23;55.41;100301.75;5036515;28;20041;-50
2023/04/13 09:29:55;;;;;;;10.05;3.88;;;;;;;14.23;55.73;100304.38;5041922;28;20040;-51
2023/04/13 09:32:26;;;;;;;13.80;4.43;;;;;;;14.32;55.43;100308.09;5041960;28;20060;-50
2023/04/13 09:35:03;;;;;;;10.82;5.18;;;;;;;14.35;55.12;100307.84;5043148;28;20029;-48
2023/04/13 09:37:33;;;;;;;11.35;5.40;;;;;;;14.26;55.35;100312.09;5047515;28;20036;-48
2023/04/13 09:40:17;;;;;;;10.57;5.65;;;;;;;14.24;55.37;100306.06;5036205;28;20025;-47
2023/04/13 09:43:03;;;;;;;9.15;5.20;;;;;;;14.26;54.54;100313.88;5041722;28;20487;-47
2023/04/13 09:45:36;;;;;;;12.32;4.30;;;;;;;14.27;55.02;100313.75;5038486;28;20033;-47
2023/04/13 09:48:02;;;;;;;9.75;4.00;;;;;;;14.14;55.29;100307.78;5029223;28;20026;-50
2023/04/13 09:50:30;;;;;;;7.47;3.55;;;;;;;14.13;54.88;100314.03;5040553;28;20033;-47
2023/04/13 09:53:09;;;;;;;7.40;3.97;;;;;;;14.13;55.10;100317.50;5037355;28;20490;-47
2023/04/13 09:55:36;;;;;;;9.82;3.75;;;;;;;14.25;55.14;100318.34;5038877;28;20441;-49
2023/04/13 09:58:12;;;;;;;12.32;4.25;;;;;;;14.34;54.52;100316.75;5045064;28;20036;-49
2023/04/13 10:00:40;;;;;;;6.07;3.33;;;;;;;14.24;54.91;100310.50;5046582;28;20036;-46
2023/04/13 10:03:11;;;;;;;7.60;3.92;;;;;;;14.36;54.92;100309.53;5040688;28;20047;-46
2023/04/13 10:05:37;;;;;;;8.15;4.55;;;;;;;14.40;54.83;100305.66;5030064;28;20032;-49
2023/04/13 10:08:04;;;;;;;8.40;3.42;;;;;;;14.46;54.58;100309.59;5042425;28;20103;-47
2023/04/13 10:10:30;;;;;;;7.03;3.30;;;;;;;14.53;54.44;100305.50;5039877;28;20394;-47
2023/04/13 10:12:59;;;;;;;10.98;3.80;;;;;;;14.66;54.16;100294.78;5042918;28;20443;-46
2023/04/13 10:15:30;;;;;;;7.38;2.95;;;;;;;14.80;53.65;100312.19;5046241;28;20020;-47
2023/04/13 10:18:09;;;;;;;14.07;5.67;;;;;;;14.80;53.29;100325.44;5039872;28;20021;-47
2023/04/13 10:20:35;;;;;;;5.95;3.03;;;;;;;14.83;53.75;100324.31;5038937;28;20362;-49
2023/04/13 10:23:03;;;;;;;5.88;2.40;;;;;;;14.76;52.85;100326.63;5034013;28;20041;-46
2023/04/13 10:25:29;;;;;;;5.85;2.22;;;;;;;14.82;52.68;100318.19;5037063;28;20035;-50
2023/04/13 10:27:59;;;;;;;5.80;2.88;;;;;;;14.89;52.26;100322.03;5038400;28;20033;-52
2023/04/13 10:30:25;;;;;;;9.07;3.45;;;;;;;14.75;52.42;100325.81;5034631;28;20570;-48
2023/04/13 10:33:05;;;;;;;8.05;2.53;;;;;;;14.68;51.63;100324.63;5039409;28;20092;-50
2023/04/13 10:35:35;;;;;;;8.30;2.17;;;;;;;14.74;52.01;100325.94;5036403;28;20040;-49
2023/04/13 10:38:01;;;;;;;4.70;2.17;;;;;;;14.66;52.17;100325.69;5025802;28;20045;-48
2023/04/13 10:40:26;;;;;;;7.75;2.10;;;;;;;14.74;52.06;100325.94;5030200;28;20033;-50
2023/04/13 10:42:52;;;;;;;3.78;1.70;;;;;;;14.76;51.68;100326.63;5037173;28;20040;-51
2023/04/13 10:45:23;;;;;;;5.10;2.22;;;;;;;14.90;51.73;100321.03;5027466;28;20091;-49
2023/04/13 10:47:49;;;;;;;3.63;1.75;;;;;;;14.90;51.29;100331.63;5040410;28;20029;-52
2023/04/13 10:50:26;;;;;;;3.47;1.60;;;;;;;14.85;49.90;100320.59;5028058;28;20045;-48
2023/04/13 10:53:03;;;;;;;3.40;1.40;;;;;;;14.98;50.56;100319.59;5029582;28;20553;-49
2023/04/13 10:55:32;;;;;;;5.07;1.42;;;;;;;14.99;50.66;100343.28;5029614;28;20488;-48
2023/04/13 10:57:59;;;;;;;4.13;1.60;;;;;;;14.91;50.63;100338.63;5031279;28;20039;-50
2023/04/13 11:00:29;;;;;;;3.97;1.55;;;;;;;15.01;50.65;100335.22;5035540;28;20028;-51
2023/04/13 11:02:57;;;;;;;12.93;5.85;;;;;;;14.99;50.54;100335.34;5036617;28;20078;-54
2023/04/13 11:05:24;;;;;;;5.20;2.10;;;;;;;15.08;50.67;100333.72;5029076;28;20036;-52
2023/04/13 11:07:50;;;;;;;3.45;1.85;;;;;;;15.22;50.45;100333.41;5042737;28;20036;-53
2023/04/13 11:10:28;;;;;;;4.80;2.33;;;;;;;15.38;49.93;100337.44;5034866;28;20165;-53
2023/04/13 11:12:55;;;;;;;6.07;2.22;;;;;;;15.47;50.04;100338.47;5037699;28;20091;-50
2023/04/13 11:15:22;;;;;;;6.38;2.83;;;;;;;15.49;49.82;100339.16;5040280;28;20061;-54
2023/04/13 11:17:59;;;;;;;4.78;1.70;;;;;;;15.58;49.38;100337.56;5038369;28;20032;-55
2023/04/13 11:20:35;;;;;;;3.85;1.88;;;;;;;15.68;49.29;100341.94;5041238;28;20034;-49
2023/04/13 11:23:05;;;;;;;10.52;2.00;;;;;;;15.80;49.31;100347.16;5035607;28;20045;-50
2023/04/13 11:25:35;;;;;;;2.83;1.10;;;;;;;15.84;49.29;100344.09;5034028;28;20033;-51
2023/04/13 11:28:02;;;;;;;3.90;1.33;;;;;;;15.84;49.17;100349.41;5045485;28;20551;-51